SWR829 EDDV-LSZH
Flight info
| Callsign | SWR829 |
|---|---|
| Flight time | 0h 56m |
| Altitude | 34000 |
| Route | TOLTA1F TOLTA T960 WERRA DCT LAMOP DCT SWALM DCT OMOGI/N0425F330 T721 LAMGO/N0390F270 T721 RILAX |
| Aircraft | A320/M-SDE2E3FGIJ1RWXY/LB1 |
Departure
| Time | 2026-04-26 14:09 |
|---|---|
| Airport | Hannover Airport (EDDV) |
Arrival
| Time | 2026-04-26 15:06 |
|---|---|
| Airport | Zürich Airport (LSZH) |
| Time | Latitude | Longitude | Altitude | Speed | Heading |
|---|---|---|---|---|---|
| 2026-04-26 13:36 | 52.45839 | 9.69393 | 179 ft | 0 kts | 30° |
| 2026-04-26 14:01 | 52.45835 | 9.69390 | 178 ft | 3 kts | 30° |
| 2026-04-26 14:01 | 52.45812 | 9.69368 | 178 ft | 4 kts | 30° |
| 2026-04-26 14:02 | 52.45791 | 9.69347 | 178 ft | 2 kts | 30° |
| 2026-04-26 14:02 | 52.45771 | 9.69334 | 178 ft | 4 kts | 342° |
| 2026-04-26 14:02 | 52.45758 | 9.69357 | 178 ft | 4 kts | 274° |
| 2026-04-26 14:02 | 52.45758 | 9.69376 | 178 ft | 0 kts | 272° |
| 2026-04-26 14:05 | 52.45759 | 9.69333 | 178 ft | 7 kts | 273° |
| 2026-04-26 14:05 | 52.45761 | 9.69261 | 178 ft | 7 kts | 272° |
| 2026-04-26 14:05 | 52.45737 | 9.69168 | 178 ft | 11 kts | 216° |
| 2026-04-26 14:05 | 52.45665 | 9.69145 | 178 ft | 10 kts | 183° |
| 2026-04-26 14:06 | 52.45617 | 9.69258 | 179 ft | 17 kts | 91° |
| 2026-04-26 14:06 | 52.45613 | 9.69447 | 179 ft | 16 kts | 92° |
| 2026-04-26 14:06 | 52.45608 | 9.69617 | 179 ft | 14 kts | 92° |
| 2026-04-26 14:06 | 52.45602 | 9.69811 | 179 ft | 19 kts | 92° |
| 2026-04-26 14:07 | 52.45597 | 9.70029 | 179 ft | 19 kts | 92° |
| 2026-04-26 14:07 | 52.45591 | 9.70242 | 179 ft | 18 kts | 92° |
| 2026-04-26 14:07 | 52.45585 | 9.70445 | 179 ft | 17 kts | 93° |
| 2026-04-26 14:07 | 52.45580 | 9.70629 | 179 ft | 15 kts | 92° |
| 2026-04-26 14:08 | 52.45575 | 9.70814 | 179 ft | 16 kts | 92° |
| 2026-04-26 14:08 | 52.45562 | 9.71018 | 179 ft | 26 kts | 107° |
| 2026-04-26 14:08 | 52.45418 | 9.71047 | 193 ft | 24 kts | 239° |
| 2026-04-26 14:08 | 52.45413 | 9.70757 | 184 ft | 35 kts | 273° |
| 2026-04-26 14:09 | 52.45435 | 9.69935 | 182 ft | 106 kts | 273° |
| 2026-04-26 14:09 | 52.45480 | 9.68425 | 253 ft | 151 kts | 273° |
| 2026-04-26 14:09 | 52.45533 | 9.66687 | 868 ft | 154 kts | 273° |
| 2026-04-26 14:09 | 52.45583 | 9.64926 | 1523 ft | 156 kts | 272° |
| 2026-04-26 14:10 | 52.45627 | 9.63044 | 1883 ft | 176 kts | 272° |
| 2026-04-26 14:10 | 52.45676 | 9.60896 | 2188 ft | 200 kts | 272° |
| 2026-04-26 14:10 | 52.45730 | 9.58486 | 2584 ft | 221 kts | 272° |
| 2026-04-26 14:10 | 52.45773 | 9.55963 | 3365 ft | 226 kts | 267° |
| 2026-04-26 14:11 | 52.44034 | 9.51901 | 4988 ft | 233 kts | 210° |
| 2026-04-26 14:11 | 52.42623 | 9.50575 | 5816 ft | 236 kts | 210° |
| 2026-04-26 14:11 | 52.41186 | 9.49237 | 6631 ft | 239 kts | 211° |
| 2026-04-26 14:12 | 52.39726 | 9.47877 | 7365 ft | 243 kts | 211° |
| 2026-04-26 14:12 | 52.38244 | 9.46490 | 8129 ft | 247 kts | 212° |
| 2026-04-26 14:12 | 52.36746 | 9.45079 | 8906 ft | 251 kts | 212° |
| 2026-04-26 14:12 | 52.35223 | 9.43643 | 9709 ft | 254 kts | 213° |
| 2026-04-26 14:13 | 52.31854 | 9.41884 | 11169 ft | 269 kts | 183° |
| 2026-04-26 14:13 | 52.29897 | 9.42101 | 11438 ft | 294 kts | 177° |
| 2026-04-26 14:13 | 52.27778 | 9.42423 | 11683 ft | 317 kts | 177° |
| 2026-04-26 14:14 | 52.25503 | 9.42773 | 11918 ft | 339 kts | 176° |
| 2026-04-26 14:14 | 52.23110 | 9.43144 | 12476 ft | 349 kts | 176° |
| 2026-04-26 14:14 | 52.20678 | 9.43522 | 13193 ft | 354 kts | 177° |
| 2026-04-26 14:14 | 52.18217 | 9.43899 | 13930 ft | 357 kts | 177° |
| 2026-04-26 14:15 | 52.15727 | 9.44276 | 14585 ft | 361 kts | 177° |
| 2026-04-26 14:15 | 52.13213 | 9.44658 | 15222 ft | 364 kts | 177° |
| 2026-04-26 14:15 | 52.10714 | 9.45039 | 15870 ft | 367 kts | 177° |
| 2026-04-26 14:15 | 52.08161 | 9.45425 | 16524 ft | 370 kts | 177° |
| 2026-04-26 14:16 | 52.05589 | 9.45807 | 17166 ft | 373 kts | 177° |
| 2026-04-26 14:16 | 52.02996 | 9.46189 | 17812 ft | 376 kts | 178° |
| 2026-04-26 14:16 | 52.00383 | 9.46571 | 18461 ft | 378 kts | 178° |
| 2026-04-26 14:16 | 51.97755 | 9.46955 | 19028 ft | 381 kts | 178° |
| 2026-04-26 14:17 | 51.95100 | 9.47345 | 19599 ft | 384 kts | 178° |
| 2026-04-26 14:17 | 51.92432 | 9.47740 | 20177 ft | 386 kts | 178° |
| 2026-04-26 14:17 | 51.89788 | 9.48135 | 20721 ft | 389 kts | 177° |
| 2026-04-26 14:17 | 51.87085 | 9.48538 | 21293 ft | 391 kts | 177° |
| 2026-04-26 14:18 | 51.84369 | 9.48942 | 21868 ft | 393 kts | 177° |
| 2026-04-26 14:18 | 51.81632 | 9.49346 | 22434 ft | 396 kts | 177° |
| 2026-04-26 14:18 | 51.78878 | 9.49748 | 23004 ft | 399 kts | 177° |
| 2026-04-26 14:18 | 51.76109 | 9.50152 | 23541 ft | 401 kts | 177° |
| 2026-04-26 14:19 | 51.73320 | 9.50564 | 24032 ft | 404 kts | 177° |
| 2026-04-26 14:19 | 51.70526 | 9.51202 | 24452 ft | 409 kts | 169° |
| 2026-04-26 14:19 | 51.67800 | 9.52608 | 24858 ft | 415 kts | 159° |
| 2026-04-26 14:19 | 51.65268 | 9.54766 | 25236 ft | 420 kts | 149° |
| 2026-04-26 14:20 | 51.62802 | 9.57313 | 25642 ft | 423 kts | 149° |
| 2026-04-26 14:20 | 51.60315 | 9.59867 | 26043 ft | 425 kts | 149° |
| 2026-04-26 14:20 | 51.57813 | 9.62421 | 26432 ft | 427 kts | 149° |
| 2026-04-26 14:20 | 51.55295 | 9.64980 | 26808 ft | 429 kts | 149° |
| 2026-04-26 14:21 | 51.52747 | 9.67507 | 27186 ft | 431 kts | 154° |
| 2026-04-26 14:21 | 51.50009 | 9.69440 | 27543 ft | 430 kts | 165° |
| 2026-04-26 14:21 | 51.47105 | 9.70513 | 27886 ft | 429 kts | 175° |
| 2026-04-26 14:21 | 51.44136 | 9.70699 | 28230 ft | 427 kts | 186° |
| 2026-04-26 14:22 | 51.41240 | 9.70043 | 28564 ft | 426 kts | 196° |
| 2026-04-26 14:22 | 51.38416 | 9.68623 | 28892 ft | 426 kts | 201° |
| 2026-04-26 14:22 | 51.35612 | 9.67053 | 29241 ft | 428 kts | 201° |
| 2026-04-26 14:22 | 51.32796 | 9.65480 | 29582 ft | 430 kts | 201° |
| 2026-04-26 14:23 | 51.29966 | 9.63905 | 29904 ft | 432 kts | 201° |
| 2026-04-26 14:23 | 51.27121 | 9.62328 | 30229 ft | 434 kts | 201° |
| 2026-04-26 14:23 | 51.25228 | 9.61280 | 30415 ft | 435 kts | 201° |
| 2026-04-26 14:23 | 51.22361 | 9.59694 | 30671 ft | 437 kts | 201° |
| 2026-04-26 14:24 | 51.18545 | 9.57588 | 30992 ft | 440 kts | 201° |
| 2026-04-26 14:24 | 51.15651 | 9.55994 | 31269 ft | 440 kts | 201° |
| 2026-04-26 14:24 | 51.12754 | 9.54397 | 31529 ft | 441 kts | 201° |
| 2026-04-26 14:24 | 51.09852 | 9.52799 | 31790 ft | 442 kts | 201° |
| 2026-04-26 14:25 | 51.06948 | 9.51206 | 32099 ft | 441 kts | 201° |
| 2026-04-26 14:25 | 51.05027 | 9.50151 | 32300 ft | 441 kts | 201° |
| 2026-04-26 14:25 | 51.02121 | 9.48558 | 32599 ft | 441 kts | 201° |
| 2026-04-26 14:25 | 50.99244 | 9.46872 | 32889 ft | 440 kts | 206° |
| 2026-04-26 14:26 | 50.96542 | 9.44609 | 33141 ft | 439 kts | 214° |
| 2026-04-26 14:26 | 50.93089 | 9.41245 | 33474 ft | 440 kts | 214° |
| 2026-04-26 14:26 | 50.90480 | 9.38703 | 33769 ft | 441 kts | 214° |
| 2026-04-26 14:26 | 50.88717 | 9.36985 | 33983 ft | 440 kts | 214° |
| 2026-04-26 14:27 | 50.86139 | 9.34476 | 34231 ft | 441 kts | 214° |
| 2026-04-26 14:27 | 50.80979 | 9.29479 | 34281 ft | 430 kts | 214° |
| 2026-04-26 14:28 | 50.75889 | 9.24571 | 34284 ft | 428 kts | 214° |
| 2026-04-26 14:28 | 50.70484 | 9.20605 | 34280 ft | 433 kts | 198° |
| 2026-04-26 14:29 | 50.64561 | 9.19077 | 34274 ft | 436 kts | 189° |
| 2026-04-26 14:29 | 50.58549 | 9.17833 | 34271 ft | 436 kts | 190° |
| 2026-04-26 14:30 | 50.52540 | 9.16584 | 34271 ft | 435 kts | 190° |
| 2026-04-26 14:30 | 50.46537 | 9.15339 | 34261 ft | 435 kts | 190° |
| 2026-04-26 14:31 | 50.40536 | 9.14099 | 34259 ft | 435 kts | 190° |
| 2026-04-26 14:31 | 50.34580 | 9.12866 | 34259 ft | 435 kts | 190° |
| 2026-04-26 14:32 | 50.28578 | 9.11632 | 34242 ft | 435 kts | 190° |
| 2026-04-26 14:32 | 50.22587 | 9.10406 | 34243 ft | 434 kts | 190° |
| 2026-04-26 14:33 | 50.16593 | 9.09196 | 34252 ft | 434 kts | 190° |
| 2026-04-26 14:33 | 50.10605 | 9.07980 | 34249 ft | 434 kts | 190° |
| 2026-04-26 14:34 | 50.04656 | 9.06773 | 34237 ft | 434 kts | 190° |
| 2026-04-26 14:34 | 49.98676 | 9.05573 | 34242 ft | 434 kts | 190° |
| 2026-04-26 14:35 | 49.92691 | 9.04363 | 34245 ft | 433 kts | 190° |
| 2026-04-26 14:35 | 49.86756 | 9.03168 | 34239 ft | 433 kts | 190° |
| 2026-04-26 14:36 | 49.80769 | 9.01966 | 34237 ft | 433 kts | 190° |
| 2026-04-26 14:36 | 49.74791 | 9.00762 | 34237 ft | 433 kts | 190° |
| 2026-04-26 14:37 | 49.68806 | 8.99566 | 34232 ft | 433 kts | 190° |
| 2026-04-26 14:37 | 49.62834 | 8.98302 | 34232 ft | 433 kts | 192° |
| 2026-04-26 14:38 | 49.56953 | 8.96685 | 34224 ft | 432 kts | 193° |
| 2026-04-26 14:38 | 49.51049 | 8.94936 | 34225 ft | 432 kts | 193° |
| 2026-04-26 14:39 | 49.45143 | 8.93264 | 34000 ft | 429 kts | 193° |
| 2026-04-26 14:39 | 49.42213 | 8.92471 | 33724 ft | 426 kts | 193° |
| 2026-04-26 14:39 | 49.39300 | 8.91691 | 33440 ft | 424 kts | 192° |
| 2026-04-26 14:39 | 49.36403 | 8.90915 | 33170 ft | 422 kts | 193° |
| 2026-04-26 14:40 | 49.33519 | 8.90135 | 32903 ft | 420 kts | 193° |
| 2026-04-26 14:40 | 49.30688 | 8.89365 | 32640 ft | 418 kts | 193° |
| 2026-04-26 14:40 | 49.27830 | 8.88585 | 32373 ft | 417 kts | 193° |
| 2026-04-26 14:40 | 49.24983 | 8.87806 | 32118 ft | 415 kts | 193° |
| 2026-04-26 14:41 | 49.22146 | 8.87032 | 31859 ft | 413 kts | 193° |
| 2026-04-26 14:41 | 49.19319 | 8.86264 | 31604 ft | 412 kts | 193° |
| 2026-04-26 14:41 | 49.16499 | 8.85499 | 31338 ft | 410 kts | 193° |
| 2026-04-26 14:41 | 49.13702 | 8.84735 | 31090 ft | 408 kts | 193° |
| 2026-04-26 14:42 | 49.10913 | 8.83971 | 30840 ft | 406 kts | 193° |
| 2026-04-26 14:42 | 49.08174 | 8.83225 | 30597 ft | 405 kts | 193° |
| 2026-04-26 14:42 | 49.05414 | 8.82474 | 30358 ft | 403 kts | 193° |
| 2026-04-26 14:42 | 49.02652 | 8.81730 | 30082 ft | 401 kts | 193° |
| 2026-04-26 14:43 | 48.99905 | 8.80989 | 29794 ft | 399 kts | 193° |
| 2026-04-26 14:43 | 48.97179 | 8.80250 | 29509 ft | 397 kts | 193° |
| 2026-04-26 14:43 | 48.94466 | 8.79513 | 29220 ft | 395 kts | 193° |
| 2026-04-26 14:43 | 48.91772 | 8.78787 | 28944 ft | 390 kts | 193° |
| 2026-04-26 14:44 | 48.89112 | 8.78075 | 28528 ft | 386 kts | 193° |
| 2026-04-26 14:44 | 48.86484 | 8.77370 | 28096 ft | 382 kts | 193° |
| 2026-04-26 14:44 | 48.83913 | 8.76677 | 27670 ft | 378 kts | 193° |
| 2026-04-26 14:44 | 48.81330 | 8.75981 | 27247 ft | 375 kts | 193° |
| 2026-04-26 14:45 | 48.78775 | 8.75297 | 26832 ft | 372 kts | 193° |
| 2026-04-26 14:45 | 48.77092 | 8.74845 | 26535 ft | 370 kts | 193° |
| 2026-04-26 14:45 | 48.73725 | 8.73943 | 25977 ft | 366 kts | 193° |
| 2026-04-26 14:45 | 48.71229 | 8.73276 | 25553 ft | 363 kts | 193° |
| 2026-04-26 14:46 | 48.68751 | 8.72616 | 25122 ft | 360 kts | 193° |
| 2026-04-26 14:46 | 48.66323 | 8.71969 | 24690 ft | 358 kts | 193° |
| 2026-04-26 14:46 | 48.63882 | 8.71314 | 24246 ft | 356 kts | 193° |
| 2026-04-26 14:46 | 48.61447 | 8.70659 | 23796 ft | 355 kts | 193° |
| 2026-04-26 14:47 | 48.59020 | 8.70010 | 23301 ft | 353 kts | 193° |
| 2026-04-26 14:47 | 48.56605 | 8.69371 | 22849 ft | 351 kts | 193° |
| 2026-04-26 14:47 | 48.54209 | 8.68742 | 22410 ft | 348 kts | 193° |
| 2026-04-26 14:47 | 48.51827 | 8.68113 | 21971 ft | 346 kts | 193° |
| 2026-04-26 14:48 | 48.49460 | 8.67487 | 21538 ft | 344 kts | 193° |
| 2026-04-26 14:48 | 48.47103 | 8.66864 | 21111 ft | 343 kts | 193° |
| 2026-04-26 14:48 | 48.44759 | 8.66245 | 20686 ft | 341 kts | 193° |
| 2026-04-26 14:48 | 48.42458 | 8.65636 | 20274 ft | 340 kts | 193° |
| 2026-04-26 14:49 | 48.40127 | 8.65017 | 19851 ft | 340 kts | 193° |
| 2026-04-26 14:49 | 48.37800 | 8.64400 | 19434 ft | 339 kts | 193° |
| 2026-04-26 14:49 | 48.35483 | 8.63747 | 19017 ft | 339 kts | 194° |
| 2026-04-26 14:49 | 48.33174 | 8.63052 | 18604 ft | 338 kts | 194° |
| 2026-04-26 14:50 | 48.30873 | 8.62339 | 18154 ft | 337 kts | 195° |
| 2026-04-26 14:50 | 48.28578 | 8.61628 | 17736 ft | 336 kts | 195° |
| 2026-04-26 14:50 | 48.26296 | 8.60929 | 17329 ft | 334 kts | 194° |
| 2026-04-26 14:50 | 48.24057 | 8.60249 | 16935 ft | 333 kts | 194° |
| 2026-04-26 14:51 | 48.21793 | 8.59564 | 16532 ft | 331 kts | 194° |
| 2026-04-26 14:51 | 48.19541 | 8.58882 | 16135 ft | 330 kts | 194° |
| 2026-04-26 14:51 | 48.17293 | 8.58203 | 15735 ft | 329 kts | 194° |
| 2026-04-26 14:51 | 48.15054 | 8.57533 | 15336 ft | 328 kts | 193° |
| 2026-04-26 14:52 | 48.12804 | 8.56862 | 14770 ft | 332 kts | 193° |
| 2026-04-26 14:52 | 48.10538 | 8.56186 | 14352 ft | 331 kts | 193° |
| 2026-04-26 14:52 | 48.08281 | 8.55512 | 13946 ft | 330 kts | 193° |
| 2026-04-26 14:52 | 48.06030 | 8.54843 | 13514 ft | 329 kts | 193° |
| 2026-04-26 14:53 | 48.03827 | 8.54188 | 13115 ft | 326 kts | 193° |
| 2026-04-26 14:53 | 48.01609 | 8.53533 | 12719 ft | 324 kts | 192° |
| 2026-04-26 14:53 | 47.99409 | 8.52885 | 12304 ft | 322 kts | 192° |
| 2026-04-26 14:53 | 47.97216 | 8.52236 | 11901 ft | 320 kts | 193° |
| 2026-04-26 14:54 | 47.95038 | 8.51588 | 11501 ft | 318 kts | 193° |
| 2026-04-26 14:54 | 47.92883 | 8.50949 | 11249 ft | 311 kts | 193° |
| 2026-04-26 14:54 | 47.90804 | 8.50325 | 11062 ft | 299 kts | 192° |
| 2026-04-26 14:54 | 47.88783 | 8.49714 | 10525 ft | 295 kts | 193° |
| 2026-04-26 14:55 | 47.86780 | 8.49106 | 9953 ft | 291 kts | 193° |
| 2026-04-26 14:55 | 47.84850 | 8.48520 | 9502 ft | 283 kts | 192° |
| 2026-04-26 14:55 | 47.82958 | 8.47946 | 9111 ft | 272 kts | 192° |
| 2026-04-26 14:55 | 47.81131 | 8.47392 | 8742 ft | 263 kts | 192° |
| 2026-04-26 14:56 | 47.79352 | 8.46854 | 8371 ft | 262 kts | 192° |
| 2026-04-26 14:56 | 47.77584 | 8.46318 | 8076 ft | 252 kts | 191° |
| 2026-04-26 14:56 | 47.75927 | 8.45811 | 7948 ft | 235 kts | 191° |
| 2026-04-26 14:56 | 47.74357 | 8.45332 | 7640 ft | 228 kts | 191° |
| 2026-04-26 14:57 | 47.72804 | 8.44860 | 7260 ft | 227 kts | 191° |
| 2026-04-26 14:57 | 47.71264 | 8.44394 | 6876 ft | 225 kts | 191° |
| 2026-04-26 14:57 | 47.69771 | 8.43711 | 6470 ft | 225 kts | 204° |
| 2026-04-26 14:57 | 47.68436 | 8.42580 | 6073 ft | 224 kts | 219° |
| 2026-04-26 14:58 | 47.67556 | 8.40718 | 5643 ft | 222 kts | 255° |
| 2026-04-26 14:58 | 47.67533 | 8.38481 | 5190 ft | 217 kts | 291° |
| 2026-04-26 14:58 | 47.68331 | 8.36637 | 4726 ft | 214 kts | 318° |
| 2026-04-26 14:58 | 47.69437 | 8.35177 | 4405 ft | 208 kts | 319° |
| 2026-04-26 14:59 | 47.70212 | 8.33468 | 4214 ft | 198 kts | 285° |
| 2026-04-26 14:59 | 47.70122 | 8.31491 | 4016 ft | 195 kts | 243° |
| 2026-04-26 14:59 | 47.69199 | 8.30062 | 4073 ft | 197 kts | 204° |
| 2026-04-26 14:59 | 47.68335 | 8.29723 | 4028 ft | 191 kts | 179° |
| 2026-04-26 15:00 | 47.66628 | 8.30106 | 4008 ft | 186 kts | 165° |
| 2026-04-26 15:00 | 47.65381 | 8.30556 | 4010 ft | 184 kts | 159° |
| 2026-04-26 15:00 | 47.64325 | 8.31481 | 4005 ft | 173 kts | 134° |
| 2026-04-26 15:00 | 47.63452 | 8.32684 | 4004 ft | 171 kts | 135° |
| 2026-04-26 15:01 | 47.62583 | 8.33882 | 4004 ft | 170 kts | 135° |
| 2026-04-26 15:01 | 47.61722 | 8.35070 | 4015 ft | 169 kts | 134° |
| 2026-04-26 15:01 | 47.60858 | 8.36258 | 4009 ft | 169 kts | 134° |
| 2026-04-26 15:01 | 47.60005 | 8.37431 | 4012 ft | 169 kts | 135° |
| 2026-04-26 15:02 | 47.59145 | 8.38614 | 4006 ft | 168 kts | 135° |
| 2026-04-26 15:02 | 47.58289 | 8.39790 | 3999 ft | 168 kts | 133° |
| 2026-04-26 15:02 | 47.57431 | 8.40969 | 3857 ft | 167 kts | 133° |
| 2026-04-26 15:02 | 47.56581 | 8.42136 | 3666 ft | 166 kts | 133° |
| 2026-04-26 15:03 | 47.55736 | 8.43295 | 3463 ft | 165 kts | 133° |
| 2026-04-26 15:03 | 47.54898 | 8.44446 | 3234 ft | 164 kts | 132° |
| 2026-04-26 15:03 | 47.54067 | 8.45585 | 3018 ft | 162 kts | 133° |
| 2026-04-26 15:03 | 47.53254 | 8.46698 | 2814 ft | 153 kts | 133° |
| 2026-04-26 15:04 | 47.52505 | 8.47723 | 2616 ft | 146 kts | 133° |
| 2026-04-26 15:04 | 47.51764 | 8.48738 | 2418 ft | 145 kts | 133° |
| 2026-04-26 15:04 | 47.51027 | 8.49748 | 2217 ft | 144 kts | 133° |
| 2026-04-26 15:04 | 47.50299 | 8.50746 | 2010 ft | 141 kts | 133° |
| 2026-04-26 15:05 | 47.49577 | 8.51734 | 1806 ft | 141 kts | 135° |
| 2026-04-26 15:05 | 47.49101 | 8.52386 | 1692 ft | 140 kts | 134° |
| 2026-04-26 15:05 | 47.48157 | 8.53677 | 1451 ft | 137 kts | 134° |
| 2026-04-26 15:05 | 47.47502 | 8.54577 | 1397 ft | 111 kts | 139° |
| 2026-04-26 15:06 | 47.47067 | 8.55172 | 1387 ft | 60 kts | 137° |
| 2026-04-26 15:06 | 47.46866 | 8.55440 | 1401 ft | 29 kts | 137° |
| 2026-04-26 15:06 | 47.46715 | 8.55613 | 1394 ft | 27 kts | 151° |
| 2026-04-26 15:06 | 47.46542 | 8.55699 | 1403 ft | 26 kts | 167° |
| 2026-04-26 15:07 | 47.46251 | 8.55936 | 1407 ft | 23 kts | 136° |
| 2026-04-26 15:07 | 47.46110 | 8.55992 | 1407 ft | 22 kts | 185° |
| 2026-04-26 15:07 | 47.45953 | 8.55963 | 1406 ft | 24 kts | 196° |
| 2026-04-26 15:08 | 47.45798 | 8.55882 | 1410 ft | 24 kts | 194° |
| 2026-04-26 15:08 | 47.45628 | 8.55853 | 1409 ft | 25 kts | 185° |
| 2026-04-26 15:08 | 47.45516 | 8.55825 | 1410 ft | 9 kts | 212° |
| 2026-04-26 15:08 | 47.45507 | 8.55754 | 1407 ft | 7 kts | 279° |
| 2026-04-26 15:09 | 47.45499 | 8.55702 | 1413 ft | 5 kts | 212° |
| 2026-04-26 15:09 | 47.45454 | 8.55694 | 1407 ft | 6 kts | 186° |
| 2026-04-26 15:09 | 47.45434 | 8.55691 | 1407 ft | 0 kts | 186° |